Holly Springs, Mississippi
Current Conditions -  °F | °C
As of 11:15 PM on Wednesday 26 Nov 2014 (Local Time) from KOLV Reporting Station
Clear Clear  
Wind Chill: 31°   Ceiling: Unl
Heat Index: 37°   Visibility: 9mi
Dew Point: 34°   Wind: 8mph
Humidity: 87%   Direction: 290°WNW
Pressure: 30.19"   Gusts: NA
Location:  34.77°N, 89.45°W
Report Text: KOLV 270515Z AUTO 29007KT 9SM CLR 03/01 A3019 RMK A01 P000
Loading
Personal Weather Stations






























Interactive Weather Map New forecast layout! Learn more

10-Day Weather Forecast

Advertisements
Track Severe Weather on mobile